createdAt,value
2022-11-20T00:00:31.859Z,-2.50
2022-11-20T00:04:38.552Z,-2.50
2022-11-20T00:08:45.874Z,-2.40
2022-11-20T00:12:52.641Z,-2.40
2022-11-20T00:16:59.428Z,-2.40
2022-11-20T00:21:08.280Z,-2.50
2022-11-20T00:25:14.979Z,-2.40
2022-11-20T00:29:21.828Z,-1.80
2022-11-20T00:33:29.100Z,-2.60
2022-11-20T00:37:35.767Z,-2.70
2022-11-20T00:41:42.465Z,-2.70
2022-11-20T00:45:49.134Z,-2.70
2022-11-20T00:49:55.949Z,-2.70
2022-11-20T00:54:03.147Z,-2.80
2022-11-20T00:58:14.104Z,-2.70
2022-11-20T01:02:21.136Z,-2.80
2022-11-20T01:06:29.615Z,-2.70
2022-11-20T01:10:36.350Z,-2.70
2022-11-20T01:14:42.994Z,-2.80
2022-11-20T01:18:52.849Z,-2.80
2022-11-20T01:22:59.499Z,-2.90
2022-11-20T01:27:06.164Z,-1.70
2022-11-20T01:31:21.433Z,-2.90
2022-11-20T01:35:28.114Z,-2.90
2022-11-20T01:39:34.831Z,-2.90
2022-11-20T01:43:41.715Z,-3.00
2022-11-20T01:47:50.282Z,-3.00
2022-11-20T01:52:02.504Z,-3.00
2022-11-20T01:56:12.936Z,-3.10
2022-11-20T02:00:21.602Z,-3.20
2022-11-20T02:04:28.377Z,-3.10
2022-11-20T02:08:35.848Z,-3.10
2022-11-20T02:13:01.194Z,-3.20
2022-11-20T02:17:07.973Z,-3.20
2022-11-20T02:21:43.117Z,-3.20
2022-11-20T02:25:51.558Z,-3.30
2022-11-20T02:30:02.864Z,-3.30
2022-11-20T02:34:13.064Z,-3.30
2022-11-20T02:38:20.360Z,-3.60
2022-11-20T02:42:27.147Z,-3.50
2022-11-20T02:46:37.524Z,-3.60
2022-11-20T02:50:45.741Z,-3.50
2022-11-20T02:54:55.000Z,-3.60
2022-11-20T02:59:04.644Z,-3.90
2022-11-20T03:03:15.426Z,-3.90
2022-11-20T03:07:22.734Z,-3.80
2022-11-20T03:11:31.091Z,-2.60
2022-11-20T03:15:42.241Z,-3.60
2022-11-20T03:19:50.844Z,-3.50
2022-11-20T03:23:59.870Z,-3.70
2022-11-20T03:28:10.927Z,-3.80
2022-11-20T03:32:20.480Z,-3.00
2022-11-20T03:36:34.990Z,-3.70
2022-11-20T03:45:12.620Z,-2.50
2022-11-20T03:49:41.432Z,-4.80
2022-11-20T03:53:49.791Z,-4.00
2022-11-20T04:24:12.598Z,-4.20
2022-11-20T04:28:21.824Z,-4.90
2022-11-20T04:32:45.252Z,-3.50
2022-11-20T04:36:59.217Z,-4.60
2022-11-20T04:41:10.739Z,-4.40
2022-11-20T04:45:19.484Z,-4.20
2022-11-20T04:49:27.087Z,-4.20
2022-11-20T04:53:37.180Z,-3.70
2022-11-20T04:57:44.052Z,-4.20
2022-11-20T05:01:53.944Z,-4.00
2022-11-20T05:06:06.720Z,-3.00
2022-11-20T05:10:13.387Z,-4.10
2022-11-20T05:14:20.194Z,-3.30
2022-11-20T05:18:27.011Z,-4.10
2022-11-20T05:22:33.758Z,-4.10
2022-11-20T05:26:40.508Z,-4.10
2022-11-20T05:30:47.357Z,-4.10
2022-11-20T05:34:54.132Z,-4.20
2022-11-20T05:39:01.928Z,-4.20
2022-11-20T05:43:12.543Z,-2.70
2022-11-20T05:47:19.323Z,-4.30
2022-11-20T05:51:29.658Z,-4.20
2022-11-20T05:55:38.555Z,-4.30
2022-11-20T05:59:45.970Z,-4.30
2022-11-20T06:03:56.981Z,-4.40
2022-11-20T06:08:04.920Z,-4.30
2022-11-20T06:12:11.634Z,-4.30
2022-11-20T06:16:20.702Z,-4.30
2022-11-20T06:20:27.420Z,-3.20
2022-11-20T06:24:34.113Z,-3.60
2022-11-20T06:28:41.067Z,-4.30
2022-11-20T06:32:51.181Z,-4.40
2022-11-20T06:36:58.170Z,-3.50
2022-11-20T06:41:06.684Z,-4.40
2022-11-20T06:45:13.378Z,-4.40
2022-11-20T06:49:20.354Z,-4.40
2022-11-20T06:53:28.669Z,-4.40
2022-11-20T06:57:35.439Z,-3.10
2022-11-20T07:01:42.185Z,-4.30
2022-11-20T07:05:51.049Z,-4.30
2022-11-20T07:09:58.297Z,-4.30
2022-11-20T07:14:05.233Z,-4.20
2022-11-20T07:18:12.178Z,-4.30
2022-11-20T07:22:18.847Z,-4.30
2022-11-20T07:26:25.548Z,-4.20
2022-11-20T07:30:34.103Z,-4.20
2022-11-20T07:34:40.980Z,-4.10
2022-11-20T07:38:47.744Z,-4.00
2022-11-20T07:42:56.348Z,-3.80
2022-11-20T07:47:03.356Z,-3.30
2022-11-20T07:51:10.229Z,-3.60
2022-11-20T07:55:17.221Z,-3.50
2022-11-20T07:59:24.161Z,-3.40
2022-11-20T08:03:30.995Z,-3.30
2022-11-20T08:07:46.125Z,-3.40
2022-11-20T08:12:11.451Z,-2.80
2022-11-20T08:16:18.145Z,-2.70
2022-11-20T08:20:24.950Z,-2.50
2022-11-20T08:24:31.740Z,-2.30
2022-11-20T08:28:38.468Z,-2.10
2022-11-20T08:32:45.161Z,-1.90
2022-11-20T08:36:51.852Z,-1.70
2022-11-20T08:41:18.496Z,-1.40
2022-11-20T08:45:33.669Z,-1.30
2022-11-20T08:49:41.522Z,-1.00
2022-11-20T08:53:49.579Z,-0.80
2022-11-20T08:57:56.245Z,-0.60
2022-11-20T09:02:02.964Z,-0.50
2022-11-20T09:06:09.671Z,-0.50
2022-11-20T09:10:24.126Z,-0.60
2022-11-20T09:14:31.496Z,0.00
2022-11-20T09:18:38.694Z,-0.10
2022-11-20T09:22:45.537Z,0.20
2022-11-20T09:26:52.215Z,0.40
2022-11-20T09:30:59.554Z,0.50
2022-11-20T09:35:06.525Z,0.80
2022-11-20T09:39:13.194Z,1.00
2022-11-20T09:43:35.246Z,0.80
2022-11-20T09:48:01.275Z,0.70
2022-11-20T09:52:26.143Z,1.40
2022-11-20T09:56:36.596Z,0.80
2022-11-20T10:00:43.696Z,0.90
2022-11-20T10:05:16.356Z,1.00
2022-11-20T10:09:35.510Z,1.20
2022-11-20T10:14:17.504Z,1.30
2022-11-20T10:18:36.919Z,1.40
2022-11-20T10:23:21.360Z,1.50
2022-11-20T10:27:34.153Z,1.70
2022-11-20T10:31:48.750Z,1.80
2022-11-20T10:36:02.198Z,1.90
2022-11-20T10:40:18.182Z,1.90
2022-11-20T10:44:51.260Z,2.00
2022-11-20T10:49:00.464Z,2.20
2022-11-20T10:53:28.107Z,2.30
2022-11-20T10:58:02.800Z,2.40
2022-11-20T11:02:17.673Z,2.40
2022-11-20T11:06:35.417Z,2.60
2022-11-20T11:11:02.436Z,2.80
2022-11-20T11:15:16.317Z,3.20
2022-11-20T11:19:23.606Z,3.60
2022-11-20T11:23:35.382Z,3.70
2022-11-20T11:27:49.380Z,3.80
2022-11-20T11:32:12.120Z,3.70
2022-11-20T11:36:25.720Z,3.40
2022-11-20T11:40:35.806Z,3.30
2022-11-20T11:45:05.751Z,3.50
2022-11-20T11:49:19.845Z,3.60
2022-11-20T11:53:29.984Z,3.70
2022-11-20T11:57:47.690Z,3.80
2022-11-20T12:02:13.074Z,3.70
2022-11-20T12:06:19.928Z,3.70
2022-11-20T12:10:46.108Z,3.60
2022-11-20T12:14:55.614Z,3.70
2022-11-20T12:19:02.323Z,3.70
2022-11-20T12:23:47.205Z,3.70
2022-11-20T12:28:20.263Z,3.60
2022-11-20T12:33:04.680Z,3.60
2022-11-20T12:37:36.801Z,3.50
2022-11-20T12:42:36.303Z,3.50
2022-11-20T12:47:09.663Z,3.40
2022-11-20T12:51:35.186Z,3.40
2022-11-20T12:55:55.426Z,3.50
2022-11-20T13:00:19.731Z,3.50
2022-11-20T13:04:54.136Z,3.40
2022-11-20T13:09:02.239Z,3.30
2022-11-20T13:13:34.548Z,3.30
2022-11-20T13:18:01.967Z,3.30
2022-11-20T13:22:10.410Z,3.20
2022-11-20T13:26:22.995Z,3.00
2022-11-20T13:30:31.568Z,3.00
2022-11-20T13:34:38.422Z,3.00
2022-11-20T13:38:49.509Z,3.00
2022-11-20T13:43:15.573Z,3.00
2022-11-20T13:47:27.792Z,3.10
2022-11-20T13:51:51.661Z,3.20
2022-11-20T13:56:24.030Z,3.10
2022-11-20T14:00:30.827Z,3.10
2022-11-20T14:04:42.507Z,3.10
2022-11-20T14:08:51.615Z,2.90
2022-11-20T14:12:58.523Z,2.80
2022-11-20T14:17:17.839Z,2.70
2022-11-20T14:21:30.421Z,2.70
2022-11-20T14:25:38.094Z,2.80
2022-11-20T14:29:46.721Z,2.70
2022-11-20T14:33:57.077Z,2.80
2022-11-20T14:38:04.514Z,2.70
2022-11-20T14:42:23.798Z,2.80
2022-11-20T14:46:32.346Z,2.80
2022-11-20T14:50:40.197Z,2.70
2022-11-20T14:54:52.480Z,2.60
2022-11-20T14:58:59.176Z,2.60
2022-11-20T15:03:16.539Z,2.70
2022-11-20T15:07:29.296Z,2.70
2022-11-20T15:11:36.476Z,2.80
2022-11-20T15:15:56.065Z,2.80
2022-11-20T15:20:04.536Z,2.80
2022-11-20T15:24:11.288Z,2.80
2022-11-20T15:28:21.555Z,2.90
2022-11-20T15:32:28.190Z,2.90
2022-11-20T15:36:34.853Z,2.80
2022-11-20T15:40:41.949Z,2.70
2022-11-20T15:44:48.634Z,2.70
2022-11-20T15:48:57.597Z,2.60
2022-11-20T15:53:04.704Z,2.60
2022-11-20T15:57:11.402Z,2.60
2022-11-20T16:01:21.658Z,2.60
2022-11-20T16:05:31.551Z,2.60
2022-11-20T16:09:38.227Z,2.60
2022-11-20T16:14:03.806Z,2.70
2022-11-20T16:18:12.353Z,2.70
2022-11-20T16:22:19.001Z,2.70
2022-11-20T16:26:25.787Z,2.70
2022-11-20T16:30:34.058Z,2.70
2022-11-20T16:34:40.733Z,2.70
2022-11-20T16:38:52.302Z,2.70
2022-11-20T16:43:09.454Z,2.70
2022-11-20T16:47:16.131Z,2.70
2022-11-20T16:51:24.277Z,2.70
2022-11-20T16:55:30.939Z,2.70
2022-11-20T16:59:37.993Z,2.70
2022-11-20T17:03:47.341Z,2.80
2022-11-20T17:07:53.995Z,2.70
2022-11-20T17:12:01.433Z,2.50
2022-11-20T17:16:14.844Z,2.40
2022-11-20T17:20:21.500Z,2.40
2022-11-20T17:24:31.792Z,2.60
2022-11-20T17:28:38.978Z,2.60
2022-11-20T17:32:47.037Z,2.60
2022-11-20T17:36:54.830Z,2.60
2022-11-20T17:41:10.952Z,2.50
2022-11-20T17:45:17.720Z,2.50
2022-11-20T17:49:24.410Z,2.40
2022-11-20T17:53:35.438Z,2.40
2022-11-20T17:57:56.584Z,2.40
2022-11-20T18:02:03.900Z,2.40
2022-11-20T18:06:14.900Z,2.40
2022-11-20T18:10:21.944Z,2.50
2022-11-20T18:14:34.809Z,2.60
2022-11-20T18:18:41.534Z,2.60
2022-11-20T18:22:48.247Z,2.60
2022-11-20T18:26:54.921Z,2.60
2022-11-20T18:31:05.630Z,2.60
2022-11-20T18:35:12.330Z,2.60
2022-11-20T18:39:19.024Z,2.60
2022-11-20T18:43:44.260Z,2.60
2022-11-20T18:47:50.980Z,2.60
2022-11-20T18:51:57.869Z,2.50
2022-11-20T18:56:05.625Z,2.50
2022-11-20T19:00:12.933Z,2.40
2022-11-20T19:04:19.639Z,2.50
2022-11-20T19:08:26.367Z,2.50
2022-11-20T19:12:33.135Z,2.60
2022-11-20T19:16:40.262Z,2.50
2022-11-20T19:20:47.036Z,2.50
2022-11-20T19:24:53.725Z,2.50
2022-11-20T19:29:00.379Z,2.40
2022-11-20T19:33:07.735Z,2.40
2022-11-20T19:37:14.403Z,2.40
2022-11-20T19:41:28.887Z,2.50
2022-11-20T19:45:35.601Z,2.30
2022-11-20T19:49:42.342Z,2.30
2022-11-20T19:53:49.486Z,2.30
2022-11-20T19:57:56.498Z,2.30
2022-11-20T20:02:03.951Z,2.20
2022-11-20T20:06:14.096Z,2.20
2022-11-20T20:10:20.819Z,2.30
2022-11-20T20:14:27.553Z,2.20
2022-11-20T20:18:34.218Z,2.30
2022-11-20T20:22:40.844Z,2.20
2022-11-20T20:26:47.487Z,2.30
2022-11-20T20:30:55.135Z,2.30
2022-11-20T20:35:01.776Z,2.30
2022-11-20T20:39:11.148Z,2.30
2022-11-20T20:43:17.816Z,2.30
2022-11-20T20:47:24.535Z,2.30
2022-11-20T20:51:31.556Z,2.30
2022-11-20T20:55:38.339Z,2.30
2022-11-20T20:59:44.992Z,2.20
2022-11-20T21:03:51.633Z,2.20
2022-11-20T21:08:17.142Z,2.20
2022-11-20T21:12:24.003Z,2.20
2022-11-20T21:16:40.853Z,2.20
2022-11-20T21:21:06.780Z,2.20
2022-11-20T21:25:13.425Z,2.30
2022-11-20T21:29:21.254Z,2.30
2022-11-20T21:33:27.901Z,2.30
2022-11-20T21:37:39.647Z,2.30
2022-11-20T21:41:47.633Z,2.40
2022-11-20T21:45:56.624Z,2.40
2022-11-20T21:50:03.611Z,2.50
2022-11-20T21:54:11.621Z,3.40
2022-11-20T21:58:18.263Z,2.40
2022-11-20T22:02:24.995Z,2.40
2022-11-20T22:06:33.985Z,2.40
2022-11-20T22:10:40.662Z,2.40
2022-11-20T22:14:47.325Z,2.40
2022-11-20T22:18:56.630Z,2.30
2022-11-20T22:23:04.576Z,2.30
2022-11-20T22:27:11.393Z,2.40
2022-11-20T22:31:19.518Z,2.30
2022-11-20T22:35:26.230Z,2.20
2022-11-20T22:39:32.893Z,2.20
2022-11-20T22:43:40.354Z,2.20
2022-11-20T22:47:47.044Z,2.20
2022-11-20T22:51:53.722Z,2.20
2022-11-20T22:56:02.288Z,2.20
2022-11-20T23:00:09.587Z,2.20
2022-11-20T23:04:16.325Z,2.10
2022-11-20T23:08:23.013Z,2.10
2022-11-20T23:12:29.695Z,2.00
2022-11-20T23:16:36.472Z,2.10
2022-11-20T23:20:43.163Z,2.00
2022-11-20T23:24:49.857Z,2.00
2022-11-20T23:28:58.029Z,2.10
2022-11-20T23:33:04.855Z,2.10
2022-11-20T23:37:11.522Z,2.10
2022-11-20T23:41:18.427Z,2.10
2022-11-20T23:45:25.122Z,2.10
2022-11-20T23:49:31.750Z,2.10
2022-11-20T23:53:38.583Z,2.00
2022-11-20T23:57:45.260Z,2.00
